Terminal Aerodrome Forecast
Issued by NWS

Home | Current Version | Previous Version | Text Only | Print | Product List | Glossary On
Versions: 1 2 3 4 5 6 7 8 9 10 11 12 13 14 15 16 17 18 19 20 21 22 23 24 25 26 27 28
000
FTUS43 KDDC 270334 AAA
TAFGCK
TAF AMD
KGCK 270334Z 2704/2724 36015G45KT P6SM BKN080
     FM270415 33025G40KT 2SM +TSRA BKN050CB
     FM270445 33014G25KT P6SM -RA VCTS BKN080CB
     FM270700 13009KT P6SM BKN250=

USA.gov is the U.S. government's official web portal to all federal, state and local government web resources and services.